Time;durP1;ratioP1;P1;durP2;ratioP2;P2;SDS_P1;SDS_P2;PMS_P1;PMS_P2;Temp;Humidity;BMP_temperature;BMP_pressure;BME280_temperature;BME280_humidity;BME280_pressure;Samples;Min_cycle;Max_cycle;Signal;HPM_P1;HPM_P2
2021/05/17 00:00:41;;;;;;;12.98;10.52;;;;;;;16.72;100.00;100317.19;5120763;27;20027;-75
2021/05/17 00:03:28;;;;;;;15.63;9.95;;;;;;;16.72;100.00;100311.06;5136066;27;20073;-76
2021/05/17 00:06:14;;;;;;;12.95;10.18;;;;;;;16.90;100.00;100308.38;5136448;27;20049;-75
2021/05/17 00:09:00;;;;;;;11.82;9.98;;;;;;;16.66;100.00;100319.28;5120889;27;20030;-75
2021/05/17 00:11:46;;;;;;;10.73;9.60;;;;;;;16.82;100.00;100307.91;5136105;27;20026;-75
2021/05/17 00:14:32;;;;;;;14.23;9.43;;;;;;;16.57;100.00;100307.38;5135028;27;20076;-76
2021/05/17 00:17:18;;;;;;;10.07;9.00;;;;;;;16.31;100.00;100310.38;5136195;27;20034;-77
2021/05/17 00:20:06;;;;;;;10.32;9.13;;;;;;;16.66;100.00;100304.28;5135637;27;20049;-77
2021/05/17 00:22:53;;;;;;;9.85;8.23;;;;;;;16.49;100.00;100303.38;5135609;27;20023;-77
2021/05/17 00:25:39;;;;;;;10.80;9.68;;;;;;;16.74;100.00;100294.19;5134806;27;20447;-77
2021/05/17 00:28:25;;;;;;;14.15;8.70;;;;;;;16.65;100.00;100294.66;5135913;27;20023;-77
2021/05/17 00:31:11;;;;;;;11.57;8.40;;;;;;;16.57;100.00;100302.09;5135657;27;20031;-77
2021/05/17 00:33:57;;;;;;;10.93;8.90;;;;;;;16.64;100.00;100281.50;5135499;27;20023;-77
2021/05/17 00:36:44;;;;;;;10.48;8.57;;;;;;;16.56;100.00;100288.94;5134786;27;20031;-76
2021/05/17 00:39:30;;;;;;;9.13;8.02;;;;;;;16.53;100.00;100282.00;5135689;27;20088;-77
2021/05/17 00:42:17;;;;;;;9.63;8.50;;;;;;;16.40;100.00;100282.63;5134944;27;20022;-75
2021/05/17 00:45:09;;;;;;;11.00;8.50;;;;;;;16.25;100.00;100286.00;5134261;27;20114;-77
2021/05/17 00:47:55;;;;;;;12.55;8.70;;;;;;;16.42;100.00;100289.59;5134875;27;20023;-76
2021/05/17 00:50:41;;;;;;;9.98;8.07;;;;;;;16.11;100.00;100283.16;5135029;27;20436;-77
2021/05/17 00:53:27;;;;;;;9.27;7.82;;;;;;;16.57;100.00;100282.72;5135892;27;20023;-77
2021/05/17 00:56:13;;;;;;;12.38;7.72;;;;;;;16.08;100.00;100283.31;5119682;27;20486;-76
2021/05/17 00:59:00;;;;;;;9.65;7.40;;;;;;;16.34;100.00;100288.22;5133723;27;20116;-77
2021/05/17 01:01:45;;;;;;;8.63;7.40;;;;;;;16.30;100.00;100281.34;5134890;27;20019;-75
2021/05/17 01:04:31;;;;;;;9.10;7.55;;;;;;;16.02;100.00;100270.38;5134595;27;20023;-76
2021/05/17 01:07:20;;;;;;;9.23;7.78;;;;;;;16.36;100.00;100273.97;5135211;27;20028;-75
2021/05/17 01:10:06;;;;;;;9.90;7.70;;;;;;;16.41;100.00;100276.44;5134879;27;20054;-77
2021/05/17 01:12:52;;;;;;;9.98;7.80;;;;;;;15.95;100.00;100269.78;5118857;28;20034;-77
2021/05/17 01:15:38;;;;;;;8.30;7.03;;;;;;;16.06;100.00;100264.88;5135223;28;20035;-75
2021/05/17 01:18:24;;;;;;;9.18;7.35;;;;;;;16.45;100.00;100265.66;5134410;28;20047;-76
2021/05/17 01:21:15;;;;;;;10.23;7.50;;;;;;;16.22;100.00;100263.22;5134856;28;20016;-76
2021/05/17 01:24:01;;;;;;;10.00;7.75;;;;;;;16.48;100.00;100265.50;5133550;28;20151;-77
2021/05/17 01:26:48;;;;;;;8.27;6.60;;;;;;;16.49;100.00;100261.06;5133915;28;20031;-77
2021/05/17 01:29:35;;;;;;;8.77;7.15;;;;;;;16.63;100.00;100259.47;5134552;28;20348;-76
2021/05/17 01:32:21;;;;;;;11.00;7.30;;;;;;;16.39;100.00;100265.06;5134322;28;20079;-76
2021/05/17 01:35:09;;;;;;;9.10;7.90;;;;;;;16.57;100.00;100264.19;5134850;28;20031;-76
2021/05/17 01:37:56;;;;;;;9.32;7.47;;;;;;;16.55;100.00;100261.63;5118734;28;20096;-76
2021/05/17 01:40:44;;;;;;;9.93;7.28;;;;;;;16.35;100.00;100274.09;5134208;28;20057;-76
2021/05/17 01:43:33;;;;;;;9.30;8.00;;;;;;;16.42;100.00;100279.03;5134124;28;20035;-77
2021/05/17 01:46:22;;;;;;;11.88;7.75;;;;;;;16.39;100.00;100273.84;5120149;28;20035;-77
2021/05/17 01:49:12;;;;;;;11.02;7.25;;;;;;;16.14;100.00;100273.31;5134401;28;20023;-76
2021/05/17 01:51:58;;;;;;;8.68;7.65;;;;;;;16.05;100.00;100267.59;5133774;28;20396;-76
2021/05/17 01:54:48;;;;;;;10.38;7.32;;;;;;;16.04;100.00;100268.53;5118728;28;20058;-75
2021/05/17 01:57:34;;;;;;;11.63;7.70;;;;;;;16.32;100.00;100268.94;5133643;28;20028;-76
2021/05/17 02:00:20;;;;;;;8.65;7.40;;;;;;;16.39;100.00;100267.72;5134138;28;20020;-76
2021/05/17 02:03:08;;;;;;;7.78;6.97;;;;;;;16.42;100.00;100257.88;5133789;28;20034;-76
2021/05/17 02:05:54;;;;;;;8.50;7.05;;;;;;;16.42;100.00;100254.34;5133679;28;20023;-76
2021/05/17 02:08:43;;;;;;;11.90;7.63;;;;;;;16.21;100.00;100264.16;5119649;28;20516;-77
2021/05/17 02:11:29;;;;;;;10.73;7.50;;;;;;;16.33;100.00;100260.06;5133655;28;20103;-76
2021/05/17 02:14:20;;;;;;;8.18;7.35;;;;;;;16.39;100.00;100259.78;5134072;27;20440;-76
2021/05/17 02:17:07;;;;;;;9.65;7.72;;;;;;;16.17;100.00;100257.31;5138857;27;20034;-76
2021/05/17 02:19:52;;;;;;;7.93;7.10;;;;;;;16.47;100.00;100257.66;5137366;27;20088;-76
2021/05/17 02:22:41;;;;;;;9.38;7.47;;;;;;;16.31;100.00;100256.66;5138693;27;20031;-76
2021/05/17 02:25:28;;;;;;;8.90;8.10;;;;;;;16.17;100.00;100253.78;5137921;27;20019;-77
2021/05/17 02:28:15;;;;;;;12.80;8.15;;;;;;;16.31;100.00;100251.38;5122877;27;20019;-77
2021/05/17 02:31:01;;;;;;;9.68;8.43;;;;;;;16.00;100.00;100254.59;5123637;27;20459;-76
2021/05/17 02:33:47;;;;;;;9.27;8.35;;;;;;;16.21;100.00;100263.28;5137845;27;20038;-76
2021/05/17 02:36:33;;;;;;;9.73;7.57;;;;;;;16.17;100.00;100259.94;5137734;27;20324;-76
2021/05/17 02:39:19;;;;;;;11.20;7.68;;;;;;;16.13;100.00;100265.44;5137405;27;20023;-77
2021/05/17 02:42:13;;;;;;;10.23;7.75;;;;;;;16.33;100.00;100268.00;5136900;27;20058;-77
2021/05/17 02:44:59;;;;;;;10.20;8.48;;;;;;;16.04;100.00;100263.25;5137463;27;20026;-77
2021/05/17 02:47:45;;;;;;;10.68;8.00;;;;;;;15.76;100.00;100268.94;5137479;27;20023;-77
2021/05/17 02:50:36;;;;;;;9.93;7.93;;;;;;;15.92;100.00;100266.44;5135996;27;20031;-77
2021/05/17 02:53:37;;;;;;;8.80;7.90;;;;;;;15.88;100.00;100270.16;5138119;27;20031;-77
2021/05/17 02:56:35;;;;;;;10.65;9.13;;;;;;;16.02;100.00;100262.44;5122755;27;20046;-76
2021/05/17 02:59:29;;;;;;;11.40;8.30;;;;;;;15.80;100.00;100272.28;5120560;27;20023;-76
2021/05/17 03:02:20;;;;;;;10.70;8.30;;;;;;;16.21;100.00;100271.22;5136458;27;20023;-77
2021/05/17 03:05:07;;;;;;;11.20;8.90;;;;;;;15.93;100.00;100276.94;5136691;27;20052;-77
2021/05/17 03:07:58;;;;;;;9.68;8.50;;;;;;;15.58;100.00;100277.69;5137124;27;20020;-77
2021/05/17 03:10:45;;;;;;;10.55;9.20;;;;;;;15.17;100.00;100275.97;5136321;27;20027;-77
2021/05/17 03:13:32;;;;;;;12.05;9.27;;;;;;;15.34;100.00;100281.38;5136441;27;20065;-75
2021/05/17 03:16:22;;;;;;;10.82;9.20;;;;;;;14.93;100.00;100278.78;5121568;27;20031;-77
2021/05/17 03:19:08;;;;;;;10.30;9.15;;;;;;;15.10;100.00;100284.22;5138037;27;20023;-76
2021/05/17 03:21:56;;;;;;;12.07;9.77;;;;;;;15.25;100.00;100283.56;5136490;27;20019;-77
2021/05/17 03:24:44;;;;;;;10.35;9.32;;;;;;;15.54;100.00;100284.03;5135258;27;20030;-77
2021/05/17 03:27:30;;;;;;;13.30;9.93;;;;;;;15.80;100.00;100285.50;5136438;27;20058;-77
2021/05/17 03:30:17;;;;;;;12.43;9.90;;;;;;;15.53;100.00;100290.25;5137854;27;20027;-77
2021/05/17 03:33:03;;;;;;;11.13;9.18;;;;;;;15.68;100.00;100288.69;5136363;27;20107;-77
2021/05/17 03:35:49;;;;;;;10.18;9.07;;;;;;;15.91;100.00;100288.53;5136467;27;20447;-77
2021/05/17 03:38:38;;;;;;;10.10;9.10;;;;;;;15.99;100.00;100281.94;5136339;27;20102;-76
2021/05/17 03:41:23;;;;;;;11.88;9.75;;;;;;;15.85;100.00;100286.13;5136605;27;20031;-76
2021/05/17 03:44:09;;;;;;;9.55;8.57;;;;;;;15.99;100.00;100289.88;5136717;27;20036;-76
2021/05/17 03:46:55;;;;;;;9.43;8.43;;;;;;;15.92;100.00;100295.50;5136658;27;20019;-77
2021/05/17 03:49:41;;;;;;;9.60;8.52;;;;;;;15.96;100.00;100299.72;5121759;27;20062;-77
2021/05/17 03:52:27;;;;;;;10.13;8.52;;;;;;;16.09;100.00;100308.78;5120813;27;20027;-76
2021/05/17 03:55:12;;;;;;;9.32;8.32;;;;;;;16.06;100.00;100309.81;5135270;27;20534;-77
2021/05/17 03:58:00;;;;;;;10.73;8.23;;;;;;;16.23;100.00;100309.88;5135428;27;20333;-77
2021/05/17 04:00:45;;;;;;;10.15;8.70;;;;;;;15.93;100.00;100307.78;5136031;27;20447;-78
2021/05/17 04:03:32;;;;;;;10.48;9.27;;;;;;;16.41;100.00;100316.13;5120883;27;20023;-77
2021/05/17 04:15:32;;;;;;;9.30;8.27;;;;;;;16.28;100.00;100331.66;5098829;27;20084;-78
2021/05/17 04:18:20;;;;;;;15.40;9.48;;;;;;;16.77;100.00;100336.38;5136654;27;20023;-78
2021/05/17 04:21:06;;;;;;;11.23;9.18;;;;;;;16.34;100.00;100341.94;5135556;27;20033;-78
2021/05/17 04:23:52;;;;;;;10.55;9.43;;;;;;;16.36;100.00;100333.94;5134885;27;20106;-78
2021/05/17 04:26:38;;;;;;;12.38;8.60;;;;;;;16.39;100.00;100333.81;5134847;27;20034;-78
2021/05/17 04:29:23;;;;;;;10.13;9.10;;;;;;;16.43;100.00;100340.72;5136023;27;20038;-77
2021/05/17 04:32:09;;;;;;;12.07;9.00;;;;;;;16.61;100.00;100350.41;5135220;27;20391;-77
2021/05/17 04:34:55;;;;;;;14.98;9.55;;;;;;;16.54;100.00;100339.25;5120937;27;20042;-79
2021/05/17 04:37:41;;;;;;;11.98;9.00;;;;;;;16.51;100.00;100339.41;5134859;27;20069;-78
2021/05/17 04:40:27;;;;;;;11.35;9.00;;;;;;;16.51;100.00;100341.22;5134888;27;20114;-77
2021/05/17 04:43:13;;;;;;;10.55;9.38;;;;;;;16.69;100.00;100342.97;5120516;27;20109;-77
2021/05/17 04:45:58;;;;;;;13.93;9.65;;;;;;;16.54;100.00;100346.31;5134915;27;20435;-77
2021/05/17 04:48:50;;;;;;;13.57;9.35;;;;;;;16.31;100.00;100334.16;5134635;27;20023;-77
2021/05/17 04:51:36;;;;;;;14.75;10.27;;;;;;;16.50;100.00;100340.34;5134621;27;20023;-79
2021/05/17 04:54:22;;;;;;;11.85;9.25;;;;;;;16.63;100.00;100333.53;5135241;27;20043;-77
2021/05/17 04:57:08;;;;;;;10.60;9.25;;;;;;;16.83;100.00;100335.19;5134388;27;20027;-77
2021/05/17 04:59:55;;;;;;;10.60;9.50;;;;;;;16.68;100.00;100339.44;5136119;27;20058;-78
2021/05/17 05:02:41;;;;;;;9.95;8.95;;;;;;;16.26;100.00;100332.66;5135666;27;20511;-76
2021/05/17 05:05:26;;;;;;;9.23;8.30;;;;;;;16.66;100.00;100337.81;5119844;27;20023;-78
2021/05/17 05:08:12;;;;;;;10.63;9.52;;;;;;;16.66;100.00;100343.97;5135573;27;20027;-77
2021/05/17 05:10:58;;;;;;;9.93;8.75;;;;;;;16.57;100.00;100354.13;5135358;27;20034;-77
2021/05/17 05:13:44;;;;;;;10.27;9.00;;;;;;;16.49;100.00;100350.97;5134727;28;20507;-77
2021/05/17 05:16:30;;;;;;;12.27;8.82;;;;;;;16.71;100.00;100349.00;5135282;28;20362;-76
2021/05/17 05:19:15;;;;;;;11.18;8.70;;;;;;;16.65;100.00;100344.91;5134770;28;20027;-76
2021/05/17 05:22:01;;;;;;;12.75;8.82;;;;;;;16.79;100.00;100342.44;5134453;28;20054;-76
2021/05/17 05:24:47;;;;;;;10.93;8.65;;;;;;;16.81;100.00;100342.38;5120663;28;20110;-76
2021/05/17 05:27:41;;;;;;;10.18;8.63;;;;;;;16.93;100.00;100339.13;5134573;28;20030;-77
2021/05/17 05:30:41;;;;;;;12.15;8.75;;;;;;;16.77;100.00;100340.78;5134111;28;20034;-77
2021/05/17 05:33:27;;;;;;;9.80;8.80;;;;;;;16.92;100.00;100346.19;5119347;28;20019;-78
2021/05/17 05:36:13;;;;;;;11.15;8.75;;;;;;;16.97;100.00;100344.19;5135448;28;20336;-76
2021/05/17 05:38:59;;;;;;;10.63;8.48;;;;;;;16.96;100.00;100347.75;5134699;28;20031;-77
2021/05/17 05:41:45;;;;;;;10.95;8.77;;;;;;;16.96;100.00;100350.41;5134371;28;20031;-77
2021/05/17 05:44:32;;;;;;;18.58;9.15;;;;;;;17.19;100.00;100346.59;5133974;28;20038;-77
2021/05/17 05:47:18;;;;;;;10.85;8.57;;;;;;;17.31;100.00;100335.41;5134323;28;20030;-77
2021/05/17 05:50:04;;;;;;;10.25;8.25;;;;;;;17.00;100.00;100341.38;5136366;27;20106;-77
2021/05/17 05:52:50;;;;;;;11.00;9.23;;;;;;;17.30;100.00;100341.63;5138026;27;20061;-78
2021/05/17 05:55:36;;;;;;;14.68;11.50;;;;;;;17.39;100.00;100339.38;5138879;27;20126;-77
2021/05/17 05:58:21;;;;;;;10.77;8.55;;;;;;;17.85;100.00;100337.88;5139157;27;20444;-76
2021/05/17 06:01:09;;;;;;;11.25;8.10;;;;;;;18.01;100.00;100336.97;5138467;27;20031;-77
2021/05/17 06:03:55;;;;;;;10.40;8.90;;;;;;;17.91;100.00;100333.09;5138031;27;20083;-77
2021/05/17 06:06:41;;;;;;;14.50;8.82;;;;;;;17.82;100.00;100333.59;5139543;27;20046;-77
2021/05/17 06:09:27;;;;;;;12.73;8.02;;;;;;;18.00;100.00;100337.03;5138250;27;20023;-76
2021/05/17 06:12:13;;;;;;;9.32;7.90;;;;;;;18.38;100.00;100335.88;5138742;27;20081;-78
2021/05/17 06:15:02;;;;;;;9.18;8.20;;;;;;;18.14;100.00;100323.91;5137511;27;20023;-77
2021/05/17 06:17:48;;;;;;;9.13;7.95;;;;;;;18.27;100.00;100332.91;5138706;27;20173;-77
2021/05/17 06:20:34;;;;;;;9.18;7.80;;;;;;;18.43;100.00;100329.38;5136786;27;20419;-77
2021/05/17 06:23:20;;;;;;;8.30;7.10;;;;;;;18.55;100.00;100336.63;5138612;27;20049;-77
2021/05/17 06:26:07;;;;;;;12.38;6.97;;;;;;;18.61;100.00;100336.28;5137481;27;20035;-77
2021/05/17 06:28:54;;;;;;;10.82;7.13;;;;;;;18.65;100.00;100321.06;5138072;27;20041;-75
2021/05/17 06:31:45;;;;;;;8.77;7.22;;;;;;;18.86;100.00;100325.97;5122601;27;20031;-76
2021/05/17 06:34:33;;;;;;;10.20;6.80;;;;;;;18.93;100.00;100321.19;5122776;27;20027;-76
2021/05/17 06:37:19;;;;;;;8.02;6.80;;;;;;;18.97;100.00;100330.69;5137393;27;20023;-77
2021/05/17 06:40:06;;;;;;;8.43;7.00;;;;;;;19.23;100.00;100316.75;5137915;27;20035;-76
2021/05/17 06:42:52;;;;;;;7.43;6.45;;;;;;;19.10;100.00;100319.25;5138432;27;20042;-76
2021/05/17 06:45:38;;;;;;;6.70;6.00;;;;;;;19.47;100.00;100320.63;5122656;27;20034;-80
2021/05/17 06:48:24;;;;;;;7.53;5.50;;;;;;;19.27;100.00;100307.66;5137140;27;20029;-77
2021/05/17 06:51:16;;;;;;;8.15;5.57;;;;;;;19.29;100.00;100305.75;5136337;27;20027;-75
2021/05/17 06:54:03;;;;;;;6.97;5.55;;;;;;;19.19;100.00;100299.28;5122842;27;20466;-75
2021/05/17 06:56:59;;;;;;;6.40;5.03;;;;;;;19.07;100.00;100287.59;5137001;27;20031;-76
2021/05/17 07:00:06;;;;;;;6.70;6.00;;;;;;;19.61;100.00;100288.75;5137007;27;20455;-76
2021/05/17 07:02:55;;;;;;;8.55;6.00;;;;;;;19.99;100.00;100292.56;5121406;27;20467;-78
2021/05/17 07:05:42;;;;;;;6.25;5.55;;;;;;;20.36;100.00;100291.97;5122684;27;20035;-77
2021/05/17 07:14:45;;;;;;;9.57;5.60;;;;;;;20.19;100.00;100296.66;5116048;27;20367;-77
2021/05/17 07:17:31;;;;;;;9.88;5.45;;;;;;;20.38;100.00;100305.19;5121665;27;20123;-77
2021/05/17 07:20:23;;;;;;;12.60;5.95;;;;;;;20.84;100.00;100303.88;5121349;27;20396;-78
2021/05/17 07:26:19;;;;;;;8.65;5.30;;;;;;;21.20;100.00;100302.34;5136826;27;20023;-78
2021/05/17 07:29:11;;;;;;;5.03;4.50;;;;;;;21.52;100.00;100294.81;5136303;27;20041;-80
2021/05/17 07:31:56;;;;;;;7.20;5.28;;;;;;;21.24;100.00;100297.63;5122866;27;20429;-77
2021/05/17 07:34:43;;;;;;;7.93;4.65;;;;;;;21.18;100.00;100303.41;5137847;27;20070;-79
2021/05/17 07:37:29;;;;;;;6.00;4.00;;;;;;;21.20;100.00;100304.13;5124146;27;20087;-78
2021/05/17 07:40:15;;;;;;;4.25;3.17;;;;;;;21.62;100.00;100307.38;5135836;27;20096;-78
2021/05/17 07:43:02;;;;;;;3.40;3.10;;;;;;;21.94;100.00;100303.34;5120706;27;20091;-78
2021/05/17 07:45:48;;;;;;;3.00;2.53;;;;;;;22.22;100.00;100291.59;5138626;27;20019;-77
2021/05/17 07:49:02;;;;;;;3.00;2.70;;;;;;;22.18;100.00;100293.63;5136205;27;20057;-77
2021/05/17 07:51:43;;;;;;;3.90;2.58;;;;;;;22.22;100.00;100287.09;5135817;27;20394;-78
2021/05/17 07:54:28;;;;;;;3.83;2.25;;;;;;;22.88;100.00;100282.19;5136025;27;20133;-78
2021/05/17 07:57:15;;;;;;;3.58;3.08;;;;;;;22.99;100.00;100282.22;5120466;27;20086;-77
2021/05/17 08:00:00;;;;;;;3.83;3.35;;;;;;;23.19;100.00;100275.38;5136715;27;20095;-78
2021/05/17 08:02:46;;;;;;;6.70;3.40;;;;;;;23.33;100.00;100277.88;5135937;27;20185;-78
2021/05/17 08:05:32;;;;;;;6.32;3.17;;;;;;;23.91;100.00;100283.09;5135765;27;20115;-77
2021/05/17 08:08:18;;;;;;;4.40;3.05;;;;;;;24.09;100.00;100284.31;5120315;27;20019;-77
2021/05/17 08:11:04;;;;;;;7.00;3.70;;;;;;;22.96;100.00;100282.47;5135120;27;20038;-78
2021/05/17 08:13:50;;;;;;;7.35;3.40;;;;;;;23.15;100.00;100280.09;5118573;27;20113;-78
2021/05/17 08:16:36;;;;;;;5.75;2.92;;;;;;;23.50;100.00;100280.09;5119406;27;20023;-78
2021/05/17 08:19:24;;;;;;;6.15;3.00;;;;;;;23.72;100.00;100287.31;5135531;27;20023;-77
2021/05/17 08:22:10;;;;;;;4.45;2.60;;;;;;;23.36;100.00;100286.50;5134825;27;20062;-76
2021/05/17 08:24:56;;;;;;;5.93;2.70;;;;;;;23.75;100.00;100289.75;5134731;27;20024;-75
2021/05/17 08:27:41;;;;;;;2.90;2.60;;;;;;;23.94;100.00;100292.72;5135925;27;20461;-76
2021/05/17 08:30:27;;;;;;;4.18;2.80;;;;;;;24.18;100.00;100301.50;5134986;27;20038;-76
2021/05/17 08:33:15;;;;;;;3.78;2.60;;;;;;;24.25;100.00;100300.00;5120355;27;20367;-75
2021/05/17 08:36:02;;;;;;;6.22;2.60;;;;;;;24.43;100.00;100301.22;5134639;27;20038;-76
2021/05/17 08:38:48;;;;;;;3.92;2.47;;;;;;;23.82;100.00;100291.00;5134715;27;20035;-75
2021/05/17 08:41:38;;;;;;;3.50;2.40;;;;;;;23.79;97.83;100291.22;5135452;27;20079;-77
2021/05/17 08:44:25;;;;;;;5.57;2.60;;;;;;;23.61;99.22;100284.63;5135204;27;20031;-77
2021/05/17 08:47:11;;;;;;;2.50;2.30;;;;;;;23.73;100.00;100280.97;5134019;27;20023;-77
2021/05/17 08:50:00;;;;;;;5.88;2.58;;;;;;;23.85;100.00;100282.69;5135636;27;20039;-76
2021/05/17 08:52:46;;;;;;;4.25;2.55;;;;;;;23.70;100.00;100283.91;5119731;27;20034;-75
2021/05/17 08:55:32;;;;;;;2.97;2.00;;;;;;;23.51;100.00;100284.50;5120144;27;20383;-76
2021/05/17 08:58:19;;;;;;;5.05;2.88;;;;;;;23.43;100.00;100270.88;5134306;27;20451;-76
2021/05/17 09:01:05;;;;;;;5.22;2.97;;;;;;;23.94;100.00;100271.31;5119454;27;20031;-75
2021/05/17 09:04:06;;;;;;;7.63;3.30;;;;;;;23.50;100.00;100269.41;5119056;27;20527;-76
2021/05/17 09:06:55;;;;;;;8.13;3.03;;;;;;;24.12;100.00;100269.84;5133914;27;20444;-76
2021/05/17 09:09:41;;;;;;;4.40;3.22;;;;;;;23.65;100.00;100260.19;5118988;27;20024;-76
2021/05/17 09:12:26;;;;;;;8.77;3.58;;;;;;;24.21;100.00;100263.75;5119537;27;20102;-76
2021/05/17 09:15:12;;;;;;;4.20;3.13;;;;;;;24.61;100.00;100260.41;5134017;28;20033;-75
2021/05/17 09:18:00;;;;;;;4.05;3.03;;;;;;;24.55;100.00;100265.41;5118772;28;20388;-76
2021/05/17 09:20:51;;;;;;;4.32;3.15;;;;;;;24.51;100.00;100256.75;5133164;28;20031;-77
2021/05/17 09:23:38;;;;;;;5.78;2.88;;;;;;;24.41;99.19;100250.44;5133823;27;20038;-76
2021/05/17 09:26:27;;;;;;;4.82;3.25;;;;;;;24.36;98.05;100254.47;5136874;27;20027;-75
2021/05/17 09:29:23;;;;;;;4.35;3.10;;;;;;;24.03;100.00;100254.53;5137618;27;20098;-76
2021/05/17 09:32:17;;;;;;;5.85;2.80;;;;;;;24.10;99.37;100259.25;5138938;27;20031;-76
2021/05/17 09:35:08;;;;;;;6.20;3.10;;;;;;;24.97;95.70;100254.69;5137448;27;20120;-76
2021/05/17 09:38:04;;;;;;;3.25;2.30;;;;;;;24.44;92.72;100255.56;5138810;27;20040;-76
2021/05/17 09:41:07;;;;;;;3.58;2.40;;;;;;;24.56;93.50;100259.91;5123186;27;20115;-76
2021/05/17 09:43:53;;;;;;;5.63;2.40;;;;;;;24.50;92.31;100270.25;5136683;27;20026;-75
2021/05/17 09:47:13;;;;;;;3.28;2.17;;;;;;;24.63;91.04;100266.47;5137002;27;20031;-77
2021/05/17 09:50:01;;;;;;;4.20;2.60;;;;;;;24.88;89.07;100266.19;5138598;27;20037;-76
2021/05/17 09:52:47;;;;;;;5.30;2.40;;;;;;;24.97;86.48;100253.81;5122497;27;20050;-77
2021/05/17 09:55:36;;;;;;;4.93;2.30;;;;;;;24.33;87.06;100271.66;5122142;27;20051;-75
2021/05/17 09:58:39;;;;;;;5.32;2.75;;;;;;;23.75;92.42;100265.69;5136797;27;20015;-75
2021/05/17 10:01:29;;;;;;;3.33;2.38;;;;;;;23.42;92.99;100253.09;5137159;27;20061;-75
2021/05/17 10:04:15;;;;;;;3.33;1.98;;;;;;;24.37;92.37;100254.34;5137117;27;20102;-75
2021/05/17 10:07:01;;;;;;;3.33;2.50;;;;;;;24.88;92.63;100252.78;5137411;27;20034;-75
2021/05/17 10:09:47;;;;;;;3.55;2.40;;;;;;;25.19;85.82;100251.03;5137380;27;20454;-75
2021/05/17 10:12:33;;;;;;;7.45;2.55;;;;;;;24.90;84.06;100247.25;5137422;27;20027;-76
2021/05/17 10:15:20;;;;;;;3.25;2.58;;;;;;;25.16;83.97;100252.13;5136912;27;20027;-76
2021/05/17 10:18:06;;;;;;;5.50;2.70;;;;;;;24.41;85.29;100255.81;5122563;27;20026;-76
2021/05/17 10:20:52;;;;;;;6.18;3.03;;;;;;;24.08;87.76;100255.88;5122965;27;20450;-76
2021/05/17 10:23:39;;;;;;;5.47;2.38;;;;;;;23.95;85.48;100246.25;5137550;27;20427;-76
2021/05/17 10:26:29;;;;;;;2.63;1.80;;;;;;;23.08;85.82;100254.78;5137629;27;20102;-76
2021/05/17 10:29:15;;;;;;;5.45;2.10;;;;;;;24.26;87.74;100262.41;5136737;27;20130;-75
2021/05/17 10:32:01;;;;;;;3.22;1.67;;;;;;;24.39;86.16;100255.06;5122264;27;20047;-76
2021/05/17 10:35:08;;;;;;;1.58;1.45;;;;;;;24.62;82.54;100246.03;5136896;27;20027;-76
2021/05/17 10:38:46;;;;;;;3.95;1.55;;;;;;;24.27;82.57;100253.38;5137123;27;20027;-75
2021/05/17 10:47:06;;;;;;;2.75;1.27;;;;;;;25.01;74.55;100233.81;5136471;27;20347;-76
2021/05/17 10:50:11;;;;;;;2.95;1.17;;;;;;;24.07;82.74;100239.91;5136532;27;20500;-76
2021/05/17 10:52:57;;;;;;;3.47;1.60;;;;;;;25.01;80.50;100232.00;5136801;27;20032;-75
2021/05/17 10:55:47;;;;;;;2.95;1.70;;;;;;;24.30;87.20;100233.56;5135438;27;20043;-75
2021/05/17 11:02:12;;;;;;;3.65;1.50;;;;;;;24.77;78.87;100219.78;5136320;27;20027;-76
2021/05/17 11:05:14;;;;;;;3.90;1.60;;;;;;;24.16;86.38;100228.47;5121822;27;20092;-76
2021/05/17 11:08:04;;;;;;;3.35;1.73;;;;;;;25.30;84.15;100218.81;5136306;27;20023;-76
2021/05/17 11:10:54;;;;;;;2.45;1.45;;;;;;;25.20;84.22;100218.69;5135855;27;20026;-76
2021/05/17 11:13:40;;;;;;;3.70;1.85;;;;;;;25.02;87.54;100217.59;5136775;27;20057;-76
2021/05/17 11:16:31;;;;;;;4.55;2.60;;;;;;;24.92;91.74;100214.00;5136216;27;20450;-77
2021/05/17 11:19:18;;;;;;;5.10;2.70;;;;;;;24.76;92.18;100215.41;5120784;27;20150;-76
2021/05/17 11:22:04;;;;;;;3.38;2.58;;;;;;;25.18;93.39;100220.69;5136258;27;20035;-76
2021/05/17 11:24:54;;;;;;;3.58;2.05;;;;;;;25.31;91.95;100218.69;5121748;27;20034;-77
2021/05/17 11:27:47;;;;;;;3.38;2.50;;;;;;;24.80;92.20;100211.50;5134831;27;20079;-76
2021/05/17 11:30:38;;;;;;;3.20;2.08;;;;;;;24.34;98.22;100226.97;5135450;27;20042;-77
2021/05/17 11:33:24;;;;;;;5.82;2.38;;;;;;;24.34;99.44;100226.97;5121179;27;20023;-77
2021/05/17 11:36:10;;;;;;;10.30;2.70;;;;;;;24.03;100.00;100231.25;5136114;27;20065;-75
2021/05/17 11:39:11;;;;;;;3.42;2.33;;;;;;;24.64;98.90;100219.97;5120788;27;20101;-75
2021/05/17 11:41:57;;;;;;;3.60;2.83;;;;;;;24.90;97.58;100215.09;5121392;27;20030;-75
2021/05/17 11:44:59;;;;;;;3.28;2.92;;;;;;;24.39;98.84;100219.41;5135814;27;20019;-75
2021/05/17 11:47:45;;;;;;;5.05;2.90;;;;;;;24.78;98.26;100211.63;5120508;27;20458;-75
2021/05/17 11:50:31;;;;;;;6.15;2.92;;;;;;;24.28;100.00;100216.75;5134768;27;20119;-75
2021/05/17 11:53:16;;;;;;;10.70;3.08;;;;;;;24.63;100.00;100206.72;5135172;27;20124;-74
2021/05/17 11:56:05;;;;;;;8.43;6.78;;;;;;;24.83;100.00;100208.56;5120400;27;20077;-76
2021/05/17 11:59:21;;;;;;;7.05;3.30;;;;;;;24.23;100.00;100206.41;5134429;27;20023;-76
2021/05/17 12:02:10;;;;;;;35.20;28.33;;;;;;;24.21;100.00;100207.50;5135519;27;20172;-75
2021/05/17 12:04:56;;;;;;;3.30;3.00;;;;;;;24.60;100.00;100197.06;5134087;27;20038;-75
2021/05/17 12:07:46;;;;;;;8.30;3.88;;;;;;;24.19;100.00;100198.78;5135728;27;20439;-73
2021/05/17 12:10:36;;;;;;;5.00;3.50;;;;;;;24.29;100.00;100194.34;5134789;27;20078;-74
2021/05/17 12:13:22;;;;;;;14.73;9.70;;;;;;;24.47;100.00;100187.50;5134554;27;20066;-74
2021/05/17 12:16:23;;;;;;;7.15;4.30;;;;;;;24.26;100.00;100192.78;5120327;27;20470;-74
2021/05/17 12:19:15;;;;;;;5.53;3.35;;;;;;;23.72;100.00;100197.22;5134455;27;20118;-74
2021/05/17 12:22:07;;;;;;;4.97;3.20;;;;;;;24.10;100.00;100199.53;5135086;27;20110;-74
2021/05/17 12:24:58;;;;;;;3.42;2.78;;;;;;;24.80;100.00;100200.78;5134516;27;20052;-74
2021/05/17 12:27:45;;;;;;;4.07;2.72;;;;;;;24.67;100.00;100195.59;5120053;27;20178;-75
2021/05/17 12:30:32;;;;;;;4.10;2.42;;;;;;;24.37;100.00;100198.13;5134609;27;20358;-74
2021/05/17 12:33:22;;;;;;;4.72;2.80;;;;;;;24.24;100.00;100194.75;5134677;27;20034;-74
2021/05/17 12:36:08;;;;;;;5.40;3.15;;;;;;;24.34;100.00;100194.84;5135128;27;20401;-74
2021/05/17 12:38:56;;;;;;;7.22;3.28;;;;;;;24.34;100.00;100187.66;5133706;27;20058;-75
2021/05/17 12:41:44;;;;;;;3.22;2.75;;;;;;;24.20;100.00;100195.97;5134125;27;20054;-74
2021/05/17 12:44:35;;;;;;;4.63;2.92;;;;;;;24.53;98.04;100184.28;5134078;27;20059;-73
2021/05/17 12:47:20;;;;;;;4.50;2.72;;;;;;;24.23;96.25;100186.84;5119033;27;20019;-74
2021/05/17 12:50:20;;;;;;;4.30;2.58;;;;;;;24.48;93.53;100178.47;5133454;27;20442;-74
2021/05/17 12:53:05;;;;;;;3.58;2.78;;;;;;;24.31;97.97;100190.56;5119866;27;20031;-74
2021/05/17 12:55:54;;;;;;;3.80;3.00;;;;;;;24.94;93.23;100184.38;5134344;27;20130;-73
2021/05/17 12:58:41;;;;;;;4.63;3.20;;;;;;;24.87;90.66;100183.22;5134049;27;20031;-74
2021/05/17 13:01:27;;;;;;;3.95;2.95;;;;;;;24.88;92.04;100190.28;5120293;28;20031;-75
2021/05/17 13:04:26;;;;;;;3.03;2.75;;;;;;;24.87;89.50;100197.44;5132940;27;20031;-75
2021/05/17 13:07:12;;;;;;;4.85;2.80;;;;;;;24.92;90.24;100200.63;5133671;27;20019;-74
2021/05/17 13:09:58;;;;;;;10.82;2.75;;;;;;;24.30;90.96;100204.09;5133850;27;20027;-75
2021/05/17 13:12:51;;;;;;;6.18;2.85;;;;;;;23.88;95.01;100207.53;5134184;27;20040;-75
2021/05/17 13:15:37;;;;;;;4.68;3.13;;;;;;;24.11;96.25;100202.06;5133790;28;20080;-76
2021/05/17 13:18:23;;;;;;;4.28;3.08;;;;;;;24.09;96.20;100205.84;5134054;28;20023;-74
2021/05/17 13:21:13;;;;;;;4.00;2.95;;;;;;;24.25;95.34;100199.13;5134158;28;20448;-74